createdAt,value
2023-03-21T00:00:40.610Z,2.87
2023-03-21T00:03:07.873Z,2.63
2023-03-21T00:05:35.054Z,3.50
2023-03-21T00:08:02.657Z,3.20
2023-03-21T00:10:39.454Z,3.50
2023-03-21T00:13:08.020Z,2.97
2023-03-21T00:15:44.346Z,3.50
2023-03-21T00:18:17.894Z,3.60
2023-03-21T00:20:52.036Z,4.30
2023-03-21T00:23:18.695Z,3.97
2023-03-21T00:25:45.338Z,3.43
2023-03-21T00:28:11.958Z,3.20
2023-03-21T00:30:40.672Z,3.70
2023-03-21T00:33:21.805Z,4.13
2023-03-21T00:35:58.725Z,4.10
2023-03-21T00:38:30.170Z,6.23
2023-03-21T00:41:01.919Z,6.60
2023-03-21T00:43:31.422Z,4.43
2023-03-21T00:45:58.773Z,3.63
2023-03-21T00:48:27.073Z,3.67
2023-03-21T00:50:55.957Z,4.40
2023-03-21T00:53:23.334Z,3.93
2023-03-21T00:55:50.255Z,3.30
2023-03-21T00:58:17.218Z,3.80
2023-03-21T01:00:46.888Z,3.47
2023-03-21T01:03:24.357Z,3.60
2023-03-21T01:06:07.813Z,3.10
2023-03-21T01:08:51.829Z,2.83
2023-03-21T01:11:25.899Z,3.47
2023-03-21T01:13:59.589Z,3.60
2023-03-21T01:16:31.629Z,4.60
2023-03-21T01:18:59.486Z,4.40
2023-03-21T01:21:26.411Z,4.87
2023-03-21T01:23:53.183Z,4.43
2023-03-21T01:26:19.827Z,5.90
2023-03-21T01:28:46.870Z,4.23
2023-03-21T01:31:15.992Z,4.53
2023-03-21T01:33:43.548Z,4.40
2023-03-21T01:36:18.805Z,4.80
2023-03-21T01:38:48.685Z,5.03
2023-03-21T01:41:33.546Z,5.53
2023-03-21T01:44:05.351Z,4.47
2023-03-21T01:46:54.005Z,5.40
2023-03-21T01:49:49.462Z,5.00
2023-03-21T01:52:36.624Z,4.43
2023-03-21T01:55:11.718Z,4.67
2023-03-21T01:58:04.714Z,3.30
2023-03-21T02:00:41.307Z,3.90
2023-03-21T02:03:34.949Z,4.27
2023-03-21T02:06:36.768Z,5.70
2023-03-21T02:09:14.133Z,4.87
2023-03-21T02:11:46.302Z,4.00
2023-03-21T02:14:28.375Z,4.07
2023-03-21T02:17:23.364Z,4.80
2023-03-21T02:20:14.677Z,4.33
2023-03-21T02:22:52.809Z,3.90
2023-03-21T02:25:31.069Z,4.90
2023-03-21T02:28:16.607Z,4.90
2023-03-21T02:31:05.613Z,5.00
2023-03-21T02:33:51.844Z,4.63
2023-03-21T02:36:36.620Z,5.50
2023-03-21T02:39:14.566Z,4.87
2023-03-21T02:42:07.625Z,4.33
2023-03-21T02:44:52.810Z,4.10
2023-03-21T02:47:47.506Z,4.90
2023-03-21T02:50:30.831Z,4.07
2023-03-21T02:52:59.748Z,4.23
2023-03-21T02:55:31.976Z,4.33
2023-03-21T02:58:12.331Z,4.67
2023-03-21T03:00:45.986Z,4.53
2023-03-21T03:03:33.070Z,4.33
2023-03-21T03:06:03.800Z,4.80
2023-03-21T03:09:02.900Z,4.90
2023-03-21T03:11:34.118Z,4.50
2023-03-21T03:14:53.034Z,5.20
2023-03-21T03:17:32.459Z,4.73
2023-03-21T03:20:16.567Z,4.40
2023-03-21T03:22:57.188Z,4.60
2023-03-21T03:25:42.187Z,4.70
2023-03-21T03:28:14.440Z,4.50
2023-03-21T03:30:51.258Z,4.30
2023-03-21T03:33:29.026Z,4.23
2023-03-21T03:36:05.442Z,4.97
2023-03-21T03:38:36.861Z,4.27
2023-03-21T03:41:12.360Z,4.67
2023-03-21T03:43:50.807Z,4.50
2023-03-21T03:46:24.210Z,5.33
2023-03-21T03:48:57.093Z,4.70
2023-03-21T03:51:36.564Z,4.70
2023-03-21T03:54:25.127Z,4.50
2023-03-21T03:56:52.829Z,4.60
2023-03-21T03:59:21.824Z,5.40
2023-03-21T04:01:57.670Z,4.43
2023-03-21T04:04:28.840Z,4.60
2023-03-21T04:06:57.980Z,4.60
2023-03-21T04:09:41.157Z,5.67
2023-03-21T04:12:10.065Z,4.30
2023-03-21T04:14:44.359Z,5.03
2023-03-21T04:17:11.912Z,5.10
2023-03-21T04:19:38.546Z,4.93
2023-03-21T04:22:05.139Z,5.30
2023-03-21T04:24:37.358Z,5.47
2023-03-21T04:27:05.721Z,5.00
2023-03-21T04:29:39.447Z,5.27
2023-03-21T04:32:19.612Z,5.93
2023-03-21T04:34:54.568Z,4.80
2023-03-21T04:37:23.584Z,4.93
2023-03-21T04:39:51.730Z,5.43
2023-03-21T04:42:18.819Z,5.03
2023-03-21T04:44:49.198Z,5.50
2023-03-21T04:47:16.821Z,4.80
2023-03-21T04:49:43.604Z,5.17
2023-03-21T04:52:11.503Z,5.20
2023-03-21T04:54:38.143Z,5.83
2023-03-21T04:57:04.840Z,4.80
2023-03-21T04:59:31.645Z,5.77
2023-03-21T05:01:58.550Z,5.23
2023-03-21T05:04:26.686Z,4.80
2023-03-21T05:06:54.816Z,4.90
2023-03-21T05:09:22.194Z,4.53
2023-03-21T05:11:49.462Z,6.07
2023-03-21T05:14:23.769Z,5.17
2023-03-21T05:16:56.165Z,5.60
2023-03-21T05:19:35.035Z,5.60
2023-03-21T05:22:05.701Z,4.50
2023-03-21T05:24:32.985Z,4.90
2023-03-21T05:27:02.063Z,6.30
2023-03-21T05:29:32.088Z,6.27
2023-03-21T05:32:02.734Z,5.80
2023-03-21T05:34:29.791Z,4.90
2023-03-21T05:36:57.212Z,5.37
2023-03-21T05:39:26.848Z,4.60
2023-03-21T05:42:03.797Z,5.20
2023-03-21T05:44:30.782Z,5.17
2023-03-21T05:46:58.500Z,6.30
2023-03-21T05:49:31.704Z,5.80
2023-03-21T05:52:01.068Z,4.37
2023-03-21T05:54:27.679Z,5.43
2023-03-21T05:56:54.551Z,5.57
2023-03-21T05:59:37.867Z,4.60
2023-03-21T06:02:05.305Z,5.40
2023-03-21T06:04:31.976Z,6.20
2023-03-21T06:06:58.612Z,6.33
2023-03-21T06:09:25.992Z,4.63
2023-03-21T06:11:57.754Z,4.83
2023-03-21T06:14:35.536Z,5.90
2023-03-21T06:17:14.294Z,4.97
2023-03-21T06:19:46.890Z,5.13
2023-03-21T06:22:22.290Z,5.97
2023-03-21T06:24:49.698Z,4.97
2023-03-21T06:27:17.966Z,5.17
2023-03-21T06:29:51.030Z,5.63
2023-03-21T06:32:18.019Z,4.83
2023-03-21T06:34:45.548Z,6.00
2023-03-21T06:37:14.699Z,5.73
2023-03-21T06:39:42.046Z,5.17
2023-03-21T06:42:09.564Z,6.00
2023-03-21T06:44:36.632Z,5.57
2023-03-21T06:47:07.122Z,5.47
2023-03-21T06:49:34.380Z,5.40
2023-03-21T06:52:07.294Z,5.50
2023-03-21T06:54:34.183Z,5.67
2023-03-21T06:57:07.972Z,5.43
2023-03-21T06:59:36.125Z,5.33
2023-03-21T07:02:29.172Z,6.50
2023-03-21T07:05:21.908Z,5.03
2023-03-21T07:07:48.552Z,6.10
2023-03-21T07:10:15.687Z,5.67
2023-03-21T07:12:48.327Z,7.00
2023-03-21T07:15:31.282Z,6.10
2023-03-21T07:17:57.899Z,6.00
2023-03-21T07:20:26.600Z,4.90
2023-03-21T07:22:53.237Z,6.97
2023-03-21T07:25:20.228Z,6.60
2023-03-21T07:27:47.558Z,5.93
2023-03-21T07:30:15.509Z,5.50
2023-03-21T07:32:42.624Z,6.67
2023-03-21T07:35:13.170Z,5.90
2023-03-21T07:37:40.933Z,5.83
2023-03-21T07:40:10.605Z,7.10
2023-03-21T07:42:39.797Z,5.97
2023-03-21T07:45:08.938Z,6.40
2023-03-21T07:47:36.505Z,6.50
2023-03-21T07:50:04.404Z,6.30
2023-03-21T07:52:31.654Z,7.43
2023-03-21T07:54:58.714Z,7.27
2023-03-21T07:57:25.385Z,7.70
2023-03-21T07:59:52.053Z,8.30
2023-03-21T08:02:19.083Z,6.97
2023-03-21T08:04:46.003Z,8.00
2023-03-21T08:07:12.691Z,7.33
2023-03-21T08:09:39.588Z,6.80
2023-03-21T08:12:08.346Z,6.70
2023-03-21T08:14:36.586Z,6.83
2023-03-21T08:17:05.182Z,7.07
2023-03-21T08:19:32.282Z,6.63
2023-03-21T08:22:02.156Z,8.20
2023-03-21T08:24:29.918Z,7.80
2023-03-21T08:26:57.161Z,6.97
2023-03-21T08:29:24.981Z,7.40
2023-03-21T08:31:51.598Z,5.53
2023-03-21T08:34:19.385Z,6.00
2023-03-21T08:36:47.033Z,7.30
2023-03-21T08:39:13.832Z,8.40
2023-03-21T08:41:40.430Z,5.90
2023-03-21T08:44:07.051Z,7.27
2023-03-21T08:46:33.926Z,7.47
2023-03-21T08:49:00.606Z,7.80
2023-03-21T08:51:27.387Z,7.50
2023-03-21T08:53:53.991Z,6.83
2023-03-21T08:56:20.861Z,8.23
2023-03-21T08:58:49.556Z,7.40
2023-03-21T09:01:16.617Z,7.60
2023-03-21T09:03:43.717Z,7.50
2023-03-21T09:06:14.074Z,8.13
2023-03-21T09:08:42.233Z,8.40
2023-03-21T09:11:10.069Z,7.40
2023-03-21T09:13:36.810Z,8.20
2023-03-21T09:16:05.090Z,7.87
2023-03-21T09:18:55.361Z,8.50
2023-03-21T09:21:23.037Z,8.33
2023-03-21T09:23:52.702Z,7.20
2023-03-21T09:26:20.540Z,7.73
2023-03-21T09:28:47.315Z,6.77
2023-03-21T09:31:16.371Z,8.00
2023-03-21T09:33:43.785Z,7.60
2023-03-21T09:36:13.853Z,7.03
2023-03-21T09:38:44.864Z,8.67
2023-03-21T09:41:29.908Z,7.60
2023-03-21T09:44:18.278Z,7.20
2023-03-21T09:46:57.781Z,9.37
2023-03-21T09:49:25.382Z,8.60
2023-03-21T09:51:55.577Z,8.80
2023-03-21T09:54:32.991Z,8.87
2023-03-21T09:57:11.622Z,7.43
2023-03-21T09:59:42.870Z,7.67
2023-03-21T10:02:35.787Z,7.03
2023-03-21T10:05:11.893Z,7.00
2023-03-21T10:07:47.549Z,7.67
2023-03-21T10:10:21.961Z,8.70
2023-03-21T10:12:50.598Z,7.13
2023-03-21T10:15:22.290Z,7.03
2023-03-21T10:18:06.107Z,6.40
2023-03-21T10:20:38.212Z,6.00
2023-03-21T10:23:07.686Z,5.70
2023-03-21T10:25:37.965Z,6.67
2023-03-21T10:28:07.790Z,6.50
2023-03-21T10:30:50.685Z,6.87
2023-03-21T10:33:23.518Z,7.27
2023-03-21T10:35:57.165Z,6.37
2023-03-21T10:38:26.359Z,6.10
2023-03-21T10:40:54.273Z,6.10
2023-03-21T10:43:34.217Z,5.30
2023-03-21T10:46:12.216Z,7.10
2023-03-21T10:48:41.532Z,6.80
2023-03-21T10:51:09.860Z,5.47
2023-03-21T10:53:41.566Z,6.07
2023-03-21T10:56:11.470Z,6.80
2023-03-21T10:58:45.221Z,5.60
2023-03-21T11:01:25.872Z,6.33
2023-03-21T11:03:58.353Z,6.00
2023-03-21T11:06:31.431Z,6.10
2023-03-21T11:09:17.044Z,5.87
2023-03-21T11:11:53.471Z,5.57
2023-03-21T11:14:47.346Z,5.97
2023-03-21T11:17:16.921Z,5.80
2023-03-21T11:19:58.422Z,6.00
2023-03-21T11:22:42.370Z,4.50
2023-03-21T11:25:19.637Z,5.40
2023-03-21T11:27:54.713Z,5.83
2023-03-21T11:30:27.228Z,5.77
2023-03-21T11:32:58.606Z,5.17
2023-03-21T11:35:31.919Z,5.97
2023-03-21T11:37:58.646Z,5.60
2023-03-21T11:40:31.065Z,5.40
2023-03-21T11:43:17.192Z,6.37
2023-03-21T11:45:58.620Z,5.43
2023-03-21T11:48:26.124Z,5.70
2023-03-21T11:51:03.932Z,5.60
2023-03-21T11:54:10.712Z,5.23
2023-03-21T11:56:42.989Z,5.90
2023-03-21T11:59:12.386Z,5.17
2023-03-21T12:01:51.113Z,5.80
2023-03-21T12:04:42.191Z,5.10
2023-03-21T12:07:17.793Z,5.13
2023-03-21T12:10:22.010Z,5.17
2023-03-21T12:13:08.474Z,5.97
2023-03-21T12:16:08.170Z,4.80
2023-03-21T12:18:57.880Z,5.70
2023-03-21T12:21:34.638Z,5.00
2023-03-21T12:24:12.406Z,5.80
2023-03-21T12:26:59.349Z,4.53
2023-03-21T12:29:31.981Z,4.73
2023-03-21T12:32:18.311Z,5.20
2023-03-21T12:35:01.769Z,4.83
2023-03-21T12:37:28.335Z,5.17
2023-03-21T12:40:09.714Z,5.60
2023-03-21T12:43:04.091Z,6.17
2023-03-21T12:45:46.669Z,5.10
2023-03-21T12:48:37.519Z,6.10
2023-03-21T12:51:08.223Z,5.77
2023-03-21T12:53:39.581Z,6.57
2023-03-21T12:56:12.077Z,6.40
2023-03-21T12:58:47.885Z,6.27
2023-03-21T13:01:16.981Z,5.77
2023-03-21T13:03:51.344Z,5.93
2023-03-21T13:06:21.103Z,6.00
2023-03-21T13:09:18.081Z,6.57
2023-03-21T13:11:48.255Z,6.70
2023-03-21T13:14:30.624Z,6.37
2023-03-21T13:17:06.361Z,6.77
2023-03-21T13:19:42.443Z,6.50
2023-03-21T13:22:28.116Z,5.83
2023-03-21T13:24:59.107Z,6.80
2023-03-21T13:27:39.076Z,5.27
2023-03-21T13:30:14.943Z,5.97
2023-03-21T13:32:43.968Z,6.43
2023-03-21T13:35:34.201Z,6.13
2023-03-21T13:38:12.742Z,6.10
2023-03-21T13:40:49.670Z,6.40
2023-03-21T13:43:43.441Z,6.00
2023-03-21T13:46:25.631Z,5.20
2023-03-21T13:48:59.750Z,5.37
2023-03-21T13:51:48.543Z,5.60
2023-03-21T13:54:15.320Z,6.10
2023-03-21T13:56:45.698Z,5.50
2023-03-21T13:59:18.346Z,6.17
2023-03-21T14:02:02.798Z,4.87
2023-03-21T14:04:41.984Z,6.57
2023-03-21T14:07:26.370Z,5.90
2023-03-21T14:09:57.232Z,5.40
2023-03-21T14:12:27.050Z,5.53
2023-03-21T14:15:14.142Z,4.87
2023-03-21T14:17:52.774Z,6.47
2023-03-21T14:20:26.376Z,5.07
2023-03-21T14:22:53.697Z,5.00
2023-03-21T14:25:24.370Z,5.23
2023-03-21T14:27:56.661Z,5.50
2023-03-21T14:30:38.611Z,5.40
2023-03-21T14:33:23.467Z,5.33
2023-03-21T14:35:50.793Z,5.30
2023-03-21T14:38:23.517Z,6.13
2023-03-21T14:40:53.393Z,5.77
2023-03-21T14:43:22.477Z,6.30
2023-03-21T14:45:52.909Z,5.33
2023-03-21T14:48:22.100Z,6.00
2023-03-21T14:50:53.850Z,6.03
2023-03-21T14:53:25.209Z,6.10
2023-03-21T14:56:16.679Z,5.87
2023-03-21T14:58:46.069Z,5.13
2023-03-21T15:01:28.577Z,5.07
2023-03-21T15:03:55.521Z,5.30
2023-03-21T15:06:22.141Z,5.53
2023-03-21T15:09:05.252Z,5.80
2023-03-21T15:11:34.430Z,5.70
2023-03-21T15:14:04.787Z,4.90
2023-03-21T15:16:32.079Z,5.00
2023-03-21T15:19:00.355Z,4.77
2023-03-21T15:21:36.075Z,5.80
2023-03-21T15:24:15.676Z,4.00
2023-03-21T15:26:47.841Z,5.33
2023-03-21T15:29:16.204Z,4.63
2023-03-21T15:31:43.187Z,5.33
2023-03-21T15:34:29.081Z,4.77
2023-03-21T15:36:58.763Z,4.20
2023-03-21T15:39:28.778Z,5.20
2023-03-21T15:42:04.451Z,4.03
2023-03-21T15:44:33.344Z,4.40
2023-03-21T15:47:00.506Z,3.63
2023-03-21T15:49:32.821Z,4.63
2023-03-21T15:52:13.404Z,4.27
2023-03-21T15:54:50.737Z,3.93
2023-03-21T15:57:23.974Z,3.53
2023-03-21T15:59:56.033Z,3.73
2023-03-21T16:02:25.271Z,5.00
2023-03-21T16:05:17.902Z,4.27
2023-03-21T16:07:47.989Z,3.80
2023-03-21T16:10:27.981Z,3.53
2023-03-21T16:12:54.674Z,3.97
2023-03-21T16:15:22.671Z,3.43
2023-03-21T16:17:54.399Z,3.43
2023-03-21T16:20:23.937Z,3.03
2023-03-21T16:22:50.929Z,3.43
2023-03-21T16:25:18.054Z,3.93
2023-03-21T16:27:46.605Z,3.90
2023-03-21T16:30:15.426Z,3.47
2023-03-21T16:32:42.385Z,3.30
2023-03-21T16:35:09.454Z,3.87
2023-03-21T16:37:36.095Z,3.53
2023-03-21T16:40:05.726Z,4.10
2023-03-21T16:42:32.418Z,3.70
2023-03-21T16:44:59.643Z,3.60
2023-03-21T16:47:26.254Z,3.20
2023-03-21T16:49:53.200Z,3.40
2023-03-21T16:52:20.576Z,3.60
2023-03-21T16:54:47.203Z,3.23
2023-03-21T16:57:28.013Z,3.73
2023-03-21T16:59:55.839Z,4.00
2023-03-21T17:02:24.649Z,3.87
2023-03-21T17:04:51.412Z,4.80
2023-03-21T17:07:18.558Z,3.10
2023-03-21T17:09:45.271Z,3.90
2023-03-21T17:12:16.349Z,3.90
2023-03-21T17:14:44.741Z,3.73
2023-03-21T17:17:16.814Z,4.20
2023-03-21T17:19:43.575Z,3.50
2023-03-21T17:22:12.552Z,5.30
2023-03-21T17:24:41.318Z,3.70
2023-03-21T17:27:13.229Z,3.90
2023-03-21T17:29:40.272Z,3.60
2023-03-21T17:32:06.959Z,4.20
2023-03-21T17:34:34.391Z,4.50
2023-03-21T17:37:01.555Z,4.50
2023-03-21T17:39:28.678Z,4.13
2023-03-21T17:41:56.791Z,3.80
2023-03-21T17:44:23.447Z,4.07
2023-03-21T17:46:51.952Z,3.93
2023-03-21T17:49:19.823Z,4.10
2023-03-21T17:51:46.933Z,4.77
2023-03-21T17:54:13.755Z,5.97
2023-03-21T17:56:41.927Z,5.00
2023-03-21T17:59:13.313Z,4.60
2023-03-21T18:01:40.461Z,4.57
2023-03-21T18:04:07.195Z,4.80
2023-03-21T18:06:34.853Z,4.63
2023-03-21T18:09:07.017Z,4.33
2023-03-21T18:11:34.104Z,4.57
2023-03-21T18:14:14.278Z,5.63
2023-03-21T18:16:42.881Z,5.50
2023-03-21T18:19:10.853Z,5.00
2023-03-21T18:21:40.422Z,5.60
2023-03-21T18:24:07.532Z,4.77
2023-03-21T18:26:34.267Z,5.10
2023-03-21T18:32:04.543Z,5.80
2023-03-21T18:34:32.464Z,6.30
2023-03-21T18:36:59.261Z,6.30
2023-03-21T18:39:26.224Z,5.87
2023-03-21T18:41:57.837Z,6.13
2023-03-21T18:44:25.484Z,5.53
2023-03-21T18:46:52.400Z,5.83
2023-03-21T18:52:08.244Z,6.00
2023-03-21T18:54:36.584Z,5.87
2023-03-21T18:57:34.540Z,5.97
2023-03-21T18:59:53.425Z,6.00
2023-03-21T19:02:20.771Z,5.63
2023-03-21T19:04:47.742Z,6.50
2023-03-21T19:07:14.661Z,5.30
2023-03-21T19:12:28.563Z,5.33
2023-03-21T19:14:55.569Z,5.60
2023-03-21T19:18:26.135Z,5.50
2023-03-21T19:20:11.731Z,5.77
2023-03-21T19:22:38.379Z,5.30
2023-03-21T19:25:05.828Z,5.07
2023-03-21T19:27:34.504Z,5.63
2023-03-21T19:30:13.508Z,5.40
2023-03-21T19:32:41.699Z,5.57
2023-03-21T19:35:09.719Z,5.57
2023-03-21T19:37:37.062Z,5.87
2023-03-21T19:40:05.905Z,5.53
2023-03-21T19:42:33.022Z,5.37
2023-03-21T19:44:59.674Z,5.27
2023-03-21T19:47:26.944Z,6.30
2023-03-21T19:50:40.880Z,5.20
2023-03-21T19:52:41.797Z,5.90
2023-03-21T19:55:08.691Z,5.30
2023-03-21T19:57:36.171Z,5.80
2023-03-21T20:00:03.671Z,6.10
2023-03-21T20:02:36.808Z,5.40
2023-03-21T20:05:05.967Z,5.57
2023-03-21T20:07:33.141Z,5.17
2023-03-21T20:09:59.870Z,4.80
2023-03-21T20:12:27.472Z,5.40
2023-03-21T20:15:07.137Z,5.07
2023-03-21T20:17:38.733Z,5.00
2023-03-21T20:20:12.737Z,5.63
2023-03-21T20:23:08.280Z,5.37
2023-03-21T20:25:26.594Z,5.80
2023-03-21T20:28:11.120Z,5.30
2023-03-21T20:30:49.316Z,5.30
2023-03-21T20:33:15.993Z,4.43
2023-03-21T20:38:30.869Z,4.70
2023-03-21T20:41:02.715Z,5.20
2023-03-21T20:46:17.421Z,5.27
2023-03-21T20:48:44.379Z,5.20
2023-03-21T20:52:07.502Z,5.60
2023-03-21T20:53:59.098Z,5.57
2023-03-21T20:56:25.736Z,5.53
2023-03-21T20:59:05.006Z,4.60
2023-03-21T21:01:38.950Z,5.30
2023-03-21T21:04:06.810Z,4.90
2023-03-21T21:06:33.690Z,5.30
2023-03-21T21:09:00.397Z,5.87
2023-03-21T21:12:04.996Z,5.70
2023-03-21T21:14:15.604Z,5.00
2023-03-21T21:16:42.575Z,5.30
2023-03-21T21:19:10.537Z,5.90
2023-03-21T21:21:37.442Z,5.30
2023-03-21T21:24:07.414Z,5.10
2023-03-21T21:26:35.184Z,5.30
2023-03-21T21:29:01.918Z,5.00
2023-03-21T21:31:28.725Z,4.60
2023-03-21T21:33:55.591Z,4.97
2023-03-21T21:36:22.579Z,5.17
2023-03-21T21:38:49.498Z,4.93
2023-03-21T21:41:19.977Z,5.10
2023-03-21T21:43:47.246Z,5.07
2023-03-21T21:46:14.353Z,5.60
2023-03-21T21:48:41.746Z,5.20
2023-03-21T21:51:08.665Z,4.40
2023-03-21T21:53:36.459Z,4.70
2023-03-21T21:56:06.624Z,3.97
2023-03-21T21:58:33.645Z,5.20
2023-03-21T22:01:04.529Z,5.30
2023-03-21T22:03:36.516Z,5.00
2023-03-21T22:06:04.461Z,3.97
2023-03-21T22:08:31.160Z,4.40
2023-03-21T22:11:00.560Z,5.30
2023-03-21T22:13:27.620Z,4.83
2023-03-21T22:15:54.680Z,5.77
2023-03-21T22:18:21.746Z,4.47
2023-03-21T22:20:48.616Z,4.20
2023-03-21T22:23:15.360Z,4.70
2023-03-21T22:25:43.216Z,5.30
2023-03-21T22:28:09.834Z,4.50
2023-03-21T22:30:36.566Z,5.03
2023-03-21T22:33:09.713Z,5.37
2023-03-21T22:35:38.245Z,4.90
2023-03-21T22:38:04.894Z,4.90
2023-03-21T22:40:31.593Z,4.80
2023-03-21T22:42:58.204Z,4.70
2023-03-21T22:45:24.804Z,4.47
2023-03-21T22:47:52.875Z,5.43
2023-03-21T22:50:19.485Z,4.50
2023-03-21T22:52:46.561Z,4.20
2023-03-21T22:55:14.225Z,4.47
2023-03-21T22:57:40.915Z,5.00
2023-03-21T23:00:14.272Z,4.50
2023-03-21T23:02:41.370Z,5.00
2023-03-21T23:05:09.624Z,4.47
2023-03-21T23:07:36.253Z,4.50
2023-03-21T23:10:05.033Z,3.60
2023-03-21T23:12:32.058Z,4.87
2023-03-21T23:14:58.699Z,3.53
2023-03-21T23:17:26.529Z,4.70
2023-03-21T23:19:53.169Z,4.60
2023-03-21T23:22:19.778Z,4.57
2023-03-21T23:24:46.910Z,5.00
2023-03-21T23:27:14.178Z,4.30
2023-03-21T23:29:40.839Z,4.60
2023-03-21T23:32:07.482Z,4.97
2023-03-21T23:34:34.123Z,4.63
2023-03-21T23:37:00.923Z,4.53
2023-03-21T23:39:28.176Z,4.27
2023-03-21T23:41:55.154Z,4.60
2023-03-21T23:44:21.782Z,4.63
2023-03-21T23:46:48.404Z,5.00
2023-03-21T23:49:15.314Z,4.67
2023-03-21T23:51:42.052Z,4.47
2023-03-21T23:54:09.040Z,4.20
2023-03-21T23:56:36.513Z,5.33
2023-03-21T23:59:03.425Z,5.50
